createdAt,value
2023-05-02T00:00:38.918Z,9.80
2023-05-02T00:03:08.880Z,9.70
2023-05-02T00:05:37.939Z,9.70
2023-05-02T00:08:07.377Z,9.70
2023-05-02T00:10:38.139Z,9.70
2023-05-02T00:13:08.981Z,10.00
2023-05-02T00:15:38.180Z,10.10
2023-05-02T00:18:07.468Z,10.10
2023-05-02T00:20:36.746Z,10.10
2023-05-02T00:23:05.795Z,10.20
2023-05-02T00:25:35.124Z,10.30
2023-05-02T00:28:04.141Z,10.30
2023-05-02T00:30:37.073Z,10.30
2023-05-02T00:33:07.616Z,10.40
2023-05-02T00:35:36.776Z,10.40
2023-05-02T00:38:08.130Z,10.40
2023-05-02T00:40:48.226Z,10.40
2023-05-02T00:43:17.930Z,10.20
2023-05-02T00:45:49.112Z,10.10
2023-05-02T00:48:22.822Z,10.10
2023-05-02T00:50:51.995Z,10.00
2023-05-02T00:53:21.464Z,9.90
2023-05-02T00:55:52.869Z,9.80
2023-05-02T00:58:22.565Z,9.70
2023-05-02T01:01:09.890Z,9.60
2023-05-02T01:03:49.243Z,9.60
2023-05-02T01:06:30.438Z,9.60
2023-05-02T01:09:10.533Z,9.60
2023-05-02T01:11:49.878Z,9.60
2023-05-02T01:14:23.157Z,9.50
2023-05-02T01:16:55.711Z,9.40
2023-05-02T01:19:31.390Z,9.40
2023-05-02T01:22:03.543Z,9.40
2023-05-02T01:24:38.409Z,9.20
2023-05-02T01:27:20.772Z,9.20
2023-05-02T01:29:53.258Z,9.30
2023-05-02T01:32:25.554Z,9.30
2023-05-02T01:34:55.746Z,9.30
2023-05-02T01:37:26.390Z,9.40
2023-05-02T01:39:59.822Z,9.30
2023-05-02T01:42:29.417Z,9.30
2023-05-02T01:45:04.145Z,9.40
2023-05-02T01:47:37.209Z,9.50
2023-05-02T01:50:09.702Z,9.60
2023-05-02T01:52:40.544Z,9.70
2023-05-02T01:55:14.941Z,9.90
2023-05-02T01:57:46.647Z,9.90
2023-05-02T02:00:19.348Z,10.00
2023-05-02T02:02:52.707Z,10.00
2023-05-02T02:05:23.948Z,10.00
2023-05-02T02:07:53.344Z,10.00
2023-05-02T02:10:23.346Z,10.00
2023-05-02T02:12:55.940Z,9.90
2023-05-02T02:15:30.813Z,9.90
2023-05-02T02:18:02.595Z,9.70
2023-05-02T02:20:35.146Z,9.60
2023-05-02T02:23:09.383Z,9.50
2023-05-02T02:25:39.711Z,9.40
2023-05-02T02:28:09.314Z,9.40
2023-05-02T02:30:42.871Z,9.30
2023-05-02T02:33:11.939Z,9.30
2023-05-02T02:35:44.765Z,9.30
2023-05-02T02:38:21.425Z,9.40
2023-05-02T02:40:56.533Z,9.50
2023-05-02T02:43:35.761Z,9.70
2023-05-02T02:46:18.835Z,9.80
2023-05-02T02:49:00.305Z,10.10
2023-05-02T02:51:34.383Z,10.00
2023-05-02T02:54:22.988Z,10.10
2023-05-02T02:57:03.653Z,10.30
2023-05-02T02:59:36.252Z,10.50
2023-05-02T03:02:11.005Z,10.20
2023-05-02T03:04:43.293Z,10.20
2023-05-02T03:07:12.454Z,10.30
2023-05-02T03:09:44.631Z,10.20
2023-05-02T03:12:17.909Z,10.30
2023-05-02T03:14:49.565Z,10.40
2023-05-02T03:17:21.223Z,10.50
2023-05-02T03:19:50.302Z,10.40
2023-05-02T03:22:18.994Z,10.50
2023-05-02T03:24:47.653Z,10.60
2023-05-02T03:27:17.034Z,10.80
2023-05-02T03:29:46.535Z,10.80
2023-05-02T03:32:17.334Z,10.80
2023-05-02T03:34:47.657Z,10.70
2023-05-02T03:37:16.578Z,10.70
2023-05-02T03:39:46.845Z,10.70
2023-05-02T03:42:15.855Z,10.70
2023-05-02T03:44:48.851Z,11.00
2023-05-02T03:47:17.731Z,11.00
2023-05-02T03:49:48.789Z,11.10
2023-05-02T03:52:18.774Z,11.20
2023-05-02T03:54:48.561Z,11.20
2023-05-02T03:57:17.841Z,11.40
2023-05-02T03:59:47.926Z,11.50
2023-05-02T04:02:26.826Z,11.60
2023-05-02T04:05:08.047Z,11.60
2023-05-02T04:07:38.306Z,11.60
2023-05-02T04:10:16.686Z,11.80
2023-05-02T04:12:52.437Z,11.80
2023-05-02T04:15:23.008Z,11.80
2023-05-02T04:17:54.335Z,11.90
2023-05-02T04:20:25.564Z,11.90
2023-05-02T04:22:56.245Z,12.10
2023-05-02T04:25:25.182Z,12.20
2023-05-02T04:27:58.698Z,12.20
2023-05-02T04:30:28.095Z,12.30
2023-05-02T04:33:06.992Z,12.30
2023-05-02T04:35:42.873Z,12.30
2023-05-02T04:38:15.647Z,12.30
2023-05-02T04:40:46.220Z,12.40
2023-05-02T04:43:17.166Z,12.30
2023-05-02T04:45:57.751Z,12.30
2023-05-02T04:48:32.655Z,12.30
2023-05-02T04:51:02.869Z,12.20
2023-05-02T04:53:35.943Z,12.20
2023-05-02T04:56:06.186Z,12.10
2023-05-02T04:58:40.217Z,12.00
2023-05-02T05:01:11.729Z,12.10
2023-05-02T05:03:41.364Z,12.00
2023-05-02T05:06:13.328Z,11.90
2023-05-02T05:08:45.984Z,12.00
2023-05-02T05:11:19.290Z,11.80
2023-05-02T05:13:48.887Z,11.70
2023-05-02T05:16:19.415Z,11.70
2023-05-02T05:18:54.602Z,11.80
2023-05-02T05:21:25.102Z,11.60
2023-05-02T05:23:55.163Z,11.50
2023-05-02T05:26:27.947Z,11.40
2023-05-02T05:29:01.942Z,11.30
2023-05-02T05:31:42.325Z,10.50
2023-05-02T05:34:16.279Z,11.50
2023-05-02T05:36:48.433Z,11.60
2023-05-02T05:39:18.204Z,11.50
2023-05-02T05:41:49.948Z,11.60
2023-05-02T05:44:22.487Z,11.80
2023-05-02T05:46:51.483Z,11.70
2023-05-02T05:49:24.755Z,11.90
2023-05-02T05:51:57.625Z,12.00
2023-05-02T05:54:26.966Z,11.90
2023-05-02T05:56:56.175Z,11.90
2023-05-02T05:59:25.240Z,11.90
2023-05-02T06:01:55.300Z,11.80
2023-05-02T06:04:25.726Z,11.70
2023-05-02T06:06:59.080Z,11.80
2023-05-02T06:09:28.332Z,11.80
2023-05-02T06:11:59.335Z,11.90
2023-05-02T06:14:28.610Z,11.60
2023-05-02T06:17:02.022Z,12.00
2023-05-02T06:19:31.328Z,12.00
2023-05-02T06:22:02.280Z,12.00
2023-05-02T06:24:31.470Z,12.10
2023-05-02T06:27:03.423Z,12.10
2023-05-02T06:29:32.972Z,12.30
2023-05-02T06:32:02.070Z,12.30
2023-05-02T06:34:33.720Z,12.40
2023-05-02T06:37:04.733Z,12.50
2023-05-02T06:39:35.095Z,12.40
2023-05-02T06:42:07.349Z,12.40
2023-05-02T06:44:37.792Z,12.50
2023-05-02T06:47:07.914Z,12.50
2023-05-02T06:49:37.420Z,12.40
2023-05-02T06:52:09.792Z,12.30
2023-05-02T06:54:39.903Z,12.40
2023-05-02T06:57:10.209Z,12.40
2023-05-02T06:59:39.726Z,12.60
2023-05-02T07:02:09.031Z,12.70
2023-05-02T07:04:38.846Z,13.10
2023-05-02T07:07:12.072Z,13.20
2023-05-02T07:09:41.297Z,13.30
2023-05-02T07:12:11.053Z,13.40
2023-05-02T07:14:39.867Z,13.60
2023-05-02T07:17:10.551Z,13.50
2023-05-02T07:19:39.302Z,13.60
2023-05-02T07:22:11.234Z,13.60
2023-05-02T07:24:43.255Z,13.70
2023-05-02T07:27:13.892Z,13.80
2023-05-02T07:29:44.362Z,13.90
2023-05-02T07:32:14.157Z,13.90
2023-05-02T07:34:44.453Z,14.20
2023-05-02T07:37:15.158Z,14.40
2023-05-02T07:39:58.235Z,14.40
2023-05-02T07:42:33.931Z,14.40
2023-05-02T07:45:02.814Z,14.90
2023-05-02T07:47:35.362Z,15.00
2023-05-02T07:50:05.345Z,15.00
2023-05-02T07:52:36.325Z,15.20
2023-05-02T07:55:05.972Z,15.40
2023-05-02T07:57:35.205Z,15.50
2023-05-02T08:00:05.014Z,15.60
2023-05-02T08:02:43.305Z,15.90
2023-05-02T08:05:15.504Z,16.20
2023-05-02T08:07:47.490Z,16.40
2023-05-02T08:10:16.752Z,16.10
2023-05-02T08:12:47.713Z,16.20
2023-05-02T08:15:17.286Z,16.30
2023-05-02T08:17:46.674Z,16.40
2023-05-02T08:20:17.739Z,16.40
2023-05-02T08:22:48.091Z,16.60
2023-05-02T08:25:17.494Z,16.20
2023-05-02T08:27:51.243Z,16.20
2023-05-02T08:30:21.398Z,16.50
2023-05-02T08:32:54.879Z,16.70
2023-05-02T08:35:25.821Z,16.50
2023-05-02T08:37:56.617Z,16.50
2023-05-02T08:40:40.523Z,16.60
2023-05-02T08:43:14.287Z,16.70
2023-05-02T08:45:45.383Z,16.50
2023-05-02T08:48:17.476Z,16.60
2023-05-02T08:50:48.657Z,16.60
2023-05-02T08:53:21.167Z,16.70
2023-05-02T08:55:57.802Z,16.70
2023-05-02T08:58:28.226Z,16.70
2023-05-02T09:01:03.007Z,16.90
2023-05-02T09:03:33.608Z,16.90
2023-05-02T09:06:08.840Z,16.80
2023-05-02T09:08:42.441Z,17.00
2023-05-02T09:11:13.392Z,17.00
2023-05-02T09:13:46.467Z,17.10
2023-05-02T09:16:23.514Z,17.20
2023-05-02T09:18:55.128Z,17.20
2023-05-02T09:21:27.329Z,17.10
2023-05-02T09:23:59.826Z,17.10
2023-05-02T09:26:33.688Z,17.10
2023-05-02T09:29:07.260Z,17.30
2023-05-02T09:34:14.897Z,17.30
2023-05-02T09:36:48.463Z,17.50
2023-05-02T09:39:22.488Z,17.40
2023-05-02T09:41:53.336Z,17.70
2023-05-02T09:44:25.173Z,17.90
2023-05-02T09:47:00.195Z,18.00
2023-05-02T09:49:46.338Z,18.20
2023-05-02T09:52:17.872Z,18.30
2023-05-02T09:54:51.053Z,18.40
2023-05-02T09:57:20.454Z,18.70
2023-05-02T09:59:57.536Z,18.80
2023-05-02T10:02:33.155Z,18.80
2023-05-02T10:05:06.422Z,18.90
2023-05-02T10:07:36.356Z,19.30
2023-05-02T10:10:10.262Z,19.90
2023-05-02T10:12:42.623Z,20.10
2023-05-02T10:15:17.691Z,20.40
2023-05-02T10:17:51.070Z,21.00
2023-05-02T10:20:26.307Z,21.30
2023-05-02T10:22:56.814Z,21.00
2023-05-02T10:25:27.485Z,21.00
2023-05-02T10:28:02.577Z,21.40
2023-05-02T10:30:33.211Z,21.20
2023-05-02T10:33:02.973Z,21.30
2023-05-02T10:35:38.580Z,21.10
2023-05-02T10:38:09.597Z,21.20
2023-05-02T10:40:43.439Z,21.30
2023-05-02T10:43:17.879Z,21.60
2023-05-02T10:45:48.805Z,21.60
2023-05-02T10:48:22.686Z,21.20
2023-05-02T10:50:55.378Z,21.00
2023-05-02T10:53:34.871Z,20.70
2023-05-02T10:56:17.524Z,21.40
2023-05-02T10:58:50.920Z,21.60
2023-05-02T11:01:38.478Z,21.10
2023-05-02T11:04:25.767Z,21.10
2023-05-02T11:07:20.567Z,20.60
2023-05-02T11:09:51.292Z,20.70
2023-05-02T11:12:49.663Z,20.90
2023-05-02T11:16:01.100Z,21.00
2023-05-02T11:19:02.383Z,21.00
2023-05-02T11:21:33.313Z,20.80
2023-05-02T11:24:39.701Z,20.50
2023-05-02T11:27:46.880Z,20.90
2023-05-02T11:30:37.546Z,20.90
2023-05-02T11:33:32.922Z,20.70
2023-05-02T11:36:02.547Z,20.50
2023-05-02T11:38:41.242Z,20.30
2023-05-02T11:41:11.757Z,20.50
2023-05-02T11:43:44.567Z,20.40
2023-05-02T11:46:18.344Z,20.50
2023-05-02T11:48:50.848Z,20.50
2023-05-02T11:51:26.340Z,20.60
2023-05-02T11:54:02.652Z,20.50
2023-05-02T11:56:31.892Z,20.80
2023-05-02T11:59:02.138Z,21.30
2023-05-02T12:01:34.953Z,21.10
2023-05-02T12:04:05.940Z,20.70
2023-05-02T12:06:37.405Z,21.30
2023-05-02T12:09:10.910Z,21.60
2023-05-02T12:11:41.059Z,22.10
2023-05-02T12:14:11.617Z,22.50
2023-05-02T12:16:43.770Z,22.70
2023-05-02T12:19:17.647Z,23.50
2023-05-02T12:21:46.906Z,23.30
2023-05-02T12:24:17.300Z,23.00
2023-05-02T12:26:46.186Z,23.50
2023-05-02T12:29:15.278Z,23.70
2023-05-02T12:31:55.548Z,23.80
2023-05-02T12:34:37.563Z,23.50
2023-05-02T12:37:08.628Z,23.30
2023-05-02T12:39:40.506Z,23.00
2023-05-02T12:42:14.381Z,22.90
2023-05-02T12:44:47.062Z,22.80
2023-05-02T12:47:19.031Z,22.70
2023-05-02T12:49:55.706Z,23.00
2023-05-02T12:52:56.743Z,23.20
2023-05-02T12:55:30.246Z,22.70
2023-05-02T12:58:02.955Z,21.70
2023-05-02T13:00:35.205Z,20.00
2023-05-02T13:03:06.717Z,19.10
2023-05-02T13:05:38.707Z,18.60
2023-05-02T13:08:09.212Z,17.80
2023-05-02T13:10:38.615Z,17.40
2023-05-02T13:13:11.153Z,17.00
2023-05-02T13:15:46.150Z,16.70
2023-05-02T13:18:17.395Z,15.90
2023-05-02T13:20:47.140Z,15.60
2023-05-02T13:23:17.298Z,15.20
2023-05-02T13:25:46.634Z,15.00
2023-05-02T13:28:22.006Z,14.90
2023-05-02T13:30:52.420Z,14.60
2023-05-02T13:33:23.238Z,14.90
2023-05-02T13:35:52.560Z,15.00
2023-05-02T13:38:22.987Z,15.30
2023-05-02T13:40:52.559Z,15.20
2023-05-02T13:43:22.072Z,15.50
2023-05-02T13:45:53.053Z,15.60
2023-05-02T13:48:25.900Z,15.60
2023-05-02T13:50:55.643Z,15.80
2023-05-02T13:53:28.795Z,16.10
2023-05-02T13:55:57.714Z,16.40
2023-05-02T13:58:26.783Z,16.60
2023-05-02T14:00:56.811Z,16.90
2023-05-02T14:03:29.066Z,17.30
2023-05-02T14:06:00.251Z,18.50
2023-05-02T14:08:29.831Z,19.10
2023-05-02T14:11:02.456Z,19.10
2023-05-02T14:13:32.725Z,19.30
2023-05-02T14:16:04.010Z,19.40
2023-05-02T14:18:34.789Z,20.00
2023-05-02T14:21:05.233Z,20.20
2023-05-02T14:23:35.729Z,20.00
2023-05-02T14:26:09.551Z,19.50
2023-05-02T14:28:39.843Z,19.00
2023-05-02T14:31:09.763Z,19.10
2023-05-02T14:33:49.557Z,19.00
2023-05-02T14:36:18.657Z,19.00
2023-05-02T14:38:47.746Z,19.20
2023-05-02T14:41:17.486Z,19.70
2023-05-02T14:43:48.444Z,20.10
2023-05-02T14:46:21.794Z,19.70
2023-05-02T14:48:52.538Z,19.80
2023-05-02T14:51:21.373Z,19.60
2023-05-02T14:53:51.061Z,19.40
2023-05-02T14:56:21.079Z,19.70
2023-05-02T14:58:53.288Z,20.40
2023-05-02T15:01:23.998Z,21.30
2023-05-02T15:04:06.056Z,21.60
2023-05-02T15:06:36.860Z,21.40
2023-05-02T15:09:06.782Z,20.80
2023-05-02T15:11:35.861Z,20.90
2023-05-02T15:14:05.885Z,20.80
2023-05-02T15:16:37.004Z,20.80
2023-05-02T15:19:07.985Z,20.00
2023-05-02T15:21:37.657Z,20.10
2023-05-02T15:24:07.926Z,20.40
2023-05-02T15:26:36.982Z,20.10
2023-05-02T15:29:06.023Z,20.30
2023-05-02T15:31:35.353Z,19.60
2023-05-02T15:34:05.051Z,19.30
2023-05-02T15:36:37.677Z,18.90
2023-05-02T15:39:07.287Z,18.50
2023-05-02T15:41:35.959Z,18.80
2023-05-02T15:44:04.708Z,19.00
2023-05-02T15:46:33.373Z,18.80
2023-05-02T15:49:03.645Z,18.60
2023-05-02T15:51:32.449Z,18.40
2023-05-02T15:54:03.634Z,18.20
2023-05-02T15:56:32.820Z,18.20
2023-05-02T15:59:01.802Z,18.10
2023-05-02T16:01:31.207Z,18.40
2023-05-02T16:04:00.254Z,18.20
2023-05-02T16:06:29.288Z,17.80
2023-05-02T16:08:58.405Z,17.50
2023-05-02T16:11:28.826Z,17.30
2023-05-02T16:13:58.486Z,17.10
2023-05-02T16:16:28.773Z,17.00
2023-05-02T16:18:57.946Z,16.90
2023-05-02T16:21:27.447Z,16.40
2023-05-02T16:23:56.785Z,16.40
2023-05-02T16:26:26.294Z,16.30
2023-05-02T16:28:58.259Z,16.30
2023-05-02T16:31:28.136Z,16.50
2023-05-02T16:33:58.779Z,16.40
2023-05-02T16:36:33.769Z,16.10
2023-05-02T16:39:02.940Z,16.00
2023-05-02T16:41:31.803Z,15.90
2023-05-02T16:44:03.467Z,15.90
2023-05-02T16:46:35.401Z,15.80
2023-05-02T16:49:04.748Z,15.90
2023-05-02T16:51:34.172Z,15.70
2023-05-02T16:54:05.208Z,15.70
2023-05-02T16:56:34.070Z,15.70
2023-05-02T16:59:07.172Z,15.80
2023-05-02T17:01:39.089Z,15.70
2023-05-02T17:04:08.045Z,15.70
2023-05-02T17:06:39.282Z,15.70
2023-05-02T17:09:08.069Z,15.70
2023-05-02T17:11:36.971Z,15.70
2023-05-02T17:14:08.497Z,15.70
2023-05-02T17:16:37.322Z,15.40
2023-05-02T17:19:06.843Z,15.60
2023-05-02T17:21:36.219Z,15.50
2023-05-02T17:24:05.200Z,15.40
2023-05-02T17:26:35.095Z,15.50
2023-05-02T17:29:05.047Z,15.40
2023-05-02T17:31:36.434Z,15.30
2023-05-02T17:34:05.990Z,15.20
2023-05-02T17:36:35.777Z,14.90
2023-05-02T17:39:05.306Z,14.90
2023-05-02T17:41:36.940Z,14.90
2023-05-02T17:44:06.900Z,14.80
2023-05-02T17:46:40.178Z,14.90
2023-05-02T17:49:09.527Z,14.70
2023-05-02T17:51:40.575Z,14.80
2023-05-02T17:54:09.591Z,14.60
2023-05-02T17:56:38.379Z,14.50
2023-05-02T17:59:08.522Z,14.50
2023-05-02T18:01:39.360Z,14.60
2023-05-02T18:04:12.984Z,14.80
2023-05-02T18:06:42.293Z,15.00
2023-05-02T18:09:11.613Z,15.00
2023-05-02T18:11:40.919Z,15.00
2023-05-02T18:14:11.851Z,14.90
2023-05-02T18:16:47.389Z,14.80
2023-05-02T18:19:16.467Z,14.70
2023-05-02T18:21:49.788Z,14.70
2023-05-02T18:24:19.183Z,14.50
2023-05-02T18:26:51.320Z,14.40
2023-05-02T18:29:23.225Z,14.30
2023-05-02T18:31:54.701Z,14.20
2023-05-02T18:34:26.169Z,14.20
2023-05-02T18:36:57.341Z,14.40
2023-05-02T18:39:27.853Z,14.50
2023-05-02T18:41:56.536Z,14.50
2023-05-02T18:44:25.376Z,14.20
2023-05-02T18:46:58.649Z,14.10
2023-05-02T18:49:28.700Z,13.90
2023-05-02T18:51:58.206Z,13.80
2023-05-02T18:54:28.244Z,13.80
2023-05-02T18:56:57.250Z,13.70
2023-05-02T18:59:27.031Z,13.60
2023-05-02T19:01:58.700Z,13.70
2023-05-02T19:04:27.912Z,14.30
2023-05-02T19:06:57.413Z,14.10
2023-05-02T19:09:28.033Z,14.40
2023-05-02T19:11:59.389Z,13.70
2023-05-02T19:14:28.787Z,13.60
2023-05-02T19:17:01.822Z,13.50
2023-05-02T19:19:31.561Z,13.40
2023-05-02T19:22:00.489Z,13.30
2023-05-02T19:24:31.456Z,13.30
2023-05-02T19:27:06.464Z,13.30
2023-05-02T19:29:35.757Z,13.30
2023-05-02T19:32:10.468Z,13.20
2023-05-02T19:34:39.476Z,13.10
2023-05-02T19:37:10.310Z,13.10
2023-05-02T19:39:40.133Z,13.00
2023-05-02T19:42:09.869Z,12.90
2023-05-02T19:44:39.496Z,12.70
2023-05-02T19:47:10.206Z,12.70
2023-05-02T19:49:39.459Z,12.80
2023-05-02T19:52:09.454Z,12.80
2023-05-02T19:54:43.253Z,12.80
2023-05-02T19:57:14.005Z,12.70
2023-05-02T19:59:43.440Z,12.60
2023-05-02T20:02:14.410Z,12.50
2023-05-02T20:04:43.670Z,12.50
2023-05-02T20:07:14.879Z,12.40
2023-05-02T20:09:44.156Z,12.30
2023-05-02T20:12:13.870Z,12.20
2023-05-02T20:14:43.276Z,12.10
2023-05-02T20:17:16.846Z,12.00
2023-05-02T20:19:47.614Z,12.00
2023-05-02T20:22:16.281Z,11.90
2023-05-02T20:24:45.592Z,11.80
2023-05-02T20:27:14.680Z,11.70
2023-05-02T20:29:44.084Z,11.60
2023-05-02T20:32:13.372Z,11.60
2023-05-02T20:34:43.952Z,11.50
2023-05-02T20:37:16.152Z,11.50
2023-05-02T20:40:01.947Z,11.40
2023-05-02T20:42:31.809Z,11.30
2023-05-02T20:45:02.149Z,11.30
2023-05-02T20:47:36.398Z,11.40
2023-05-02T20:50:09.048Z,11.50
2023-05-02T20:52:42.233Z,11.50
2023-05-02T20:55:12.289Z,11.40
2023-05-02T20:57:41.685Z,11.50
2023-05-02T21:00:14.766Z,11.50
2023-05-02T21:02:48.144Z,11.50
2023-05-02T21:05:19.460Z,11.50
2023-05-02T21:07:48.887Z,11.50
2023-05-02T21:10:20.626Z,11.60
2023-05-02T21:12:50.412Z,11.60
2023-05-02T21:15:19.733Z,11.50
2023-05-02T21:17:54.815Z,11.60
2023-05-02T21:20:27.631Z,11.60
2023-05-02T21:23:01.143Z,11.60
2023-05-02T21:25:31.123Z,11.60
2023-05-02T21:28:00.582Z,11.60
2023-05-02T21:30:32.515Z,11.80
2023-05-02T21:33:02.155Z,11.80
2023-05-02T21:35:35.476Z,11.70
2023-05-02T21:38:06.075Z,11.70
2023-05-02T21:40:38.109Z,11.80
2023-05-02T21:43:07.792Z,11.80
2023-05-02T21:45:45.136Z,11.80
2023-05-02T21:48:15.056Z,11.90
2023-05-02T21:50:48.333Z,11.80
2023-05-02T21:53:18.211Z,11.70
2023-05-02T21:55:47.303Z,11.60
2023-05-02T21:58:17.681Z,11.60
2023-05-02T22:00:48.803Z,11.60
2023-05-02T22:03:20.702Z,11.50
2023-05-02T22:05:51.826Z,11.50
2023-05-02T22:08:22.162Z,11.50
2023-05-02T22:10:51.911Z,11.60
2023-05-02T22:13:21.205Z,11.50
2023-05-02T22:15:51.806Z,11.50
2023-05-02T22:18:21.807Z,11.60
2023-05-02T22:20:55.708Z,11.50
2023-05-02T22:23:25.588Z,11.50
2023-05-02T22:25:57.644Z,11.60
2023-05-02T22:28:29.154Z,11.50
2023-05-02T22:31:02.811Z,11.50
2023-05-02T22:33:32.018Z,11.50
2023-05-02T22:36:04.477Z,11.50
2023-05-02T22:38:33.148Z,11.50
2023-05-02T22:41:04.629Z,11.80
2023-05-02T22:43:34.188Z,11.70
2023-05-02T22:46:05.454Z,11.60
2023-05-02T22:48:34.942Z,11.50
2023-05-02T22:51:07.215Z,11.50
2023-05-02T22:53:36.448Z,11.50
2023-05-02T22:56:06.224Z,11.40
2023-05-02T22:58:35.164Z,11.40
2023-05-02T23:01:05.962Z,11.30
2023-05-02T23:03:39.334Z,11.20
2023-05-02T23:06:10.495Z,11.10
2023-05-02T23:08:40.147Z,11.10
2023-05-02T23:11:15.278Z,11.00
2023-05-02T23:13:46.374Z,11.00
2023-05-02T23:16:17.501Z,11.00
2023-05-02T23:18:49.535Z,11.00
2023-05-02T23:21:22.931Z,10.90
2023-05-02T23:24:07.067Z,10.90
2023-05-02T23:26:39.079Z,10.80
2023-05-02T23:29:08.700Z,10.70
2023-05-02T23:31:37.893Z,10.70
2023-05-02T23:34:07.559Z,10.70
2023-05-02T23:36:38.397Z,10.70
2023-05-02T23:39:11.368Z,10.70
2023-05-02T23:41:43.358Z,10.70
2023-05-02T23:44:14.421Z,10.60
2023-05-02T23:46:46.537Z,10.60
2023-05-02T23:49:16.910Z,10.60
2023-05-02T23:51:49.858Z,10.60
2023-05-02T23:54:20.651Z,10.60
2023-05-02T23:56:56.273Z,10.60
2023-05-02T23:59:25.448Z,10.60
